sensor_id;sensor_type;location;lat;lon;timestamp;pressure;altitude;pressure_sealevel;temperature;humidity
41513;BME280;27244;59.940;30.280;2024-01-15T00:01:43;98574.13;;;24.08;17.55
41513;BME280;27244;59.940;30.280;2024-01-15T00:04:10;98575.13;;;24.05;17.48
41513;BME280;27244;59.940;30.280;2024-01-15T00:06:38;98577.66;;;24.02;17.60
41513;BME280;27244;59.940;30.280;2024-01-15T00:09:05;98567.41;;;23.99;17.51
41513;BME280;27244;59.940;30.280;2024-01-15T00:11:33;98565.63;;;24.02;17.43
41513;BME280;27244;59.940;30.280;2024-01-15T00:14:00;98558.13;;;23.93;17.32
41513;BME280;27244;59.940;30.280;2024-01-15T00:16:28;98567.41;;;23.99;17.57
41513;BME280;27244;59.940;30.280;2024-01-15T00:18:57;98561.22;;;23.95;17.31
41513;BME280;27244;59.940;30.280;2024-01-15T00:21:24;98564.31;;;23.97;17.29
41513;BME280;27244;59.940;30.280;2024-01-15T00:23:51;98564.59;;;23.99;17.19
41513;BME280;27244;59.940;30.280;2024-01-15T00:26:22;98561.00;;;23.99;17.30
41513;BME280;27244;59.940;30.280;2024-01-15T00:28:49;98558.41;;;23.95;17.42
41513;BME280;27244;59.940;30.280;2024-01-15T00:31:16;98544.84;;;23.94;17.33
41513;BME280;27244;59.940;30.280;2024-01-15T00:33:43;98551.72;;;23.93;17.42
41513;BME280;27244;59.940;30.280;2024-01-15T00:36:12;98541.25;;;23.93;17.28
41513;BME280;27244;59.940;30.280;2024-01-15T00:38:43;98544.06;;;23.93;17.43
41513;BME280;27244;59.940;30.280;2024-01-15T00:41:12;98538.66;;;23.90;17.28
41513;BME280;27244;59.940;30.280;2024-01-15T00:43:39;98535.06;;;23.89;17.27
41513;BME280;27244;59.940;30.280;2024-01-15T00:46:07;98537.09;;;23.89;17.27
41513;BME280;27244;59.940;30.280;2024-01-15T00:48:34;98538.34;;;23.88;17.26
41513;BME280;27244;59.940;30.280;2024-01-15T00:51:03;98532.94;;;23.84;17.13
41513;BME280;27244;59.940;30.280;2024-01-15T00:53:32;98540.69;;;23.89;17.37
41513;BME280;27244;59.940;30.280;2024-01-15T00:55:59;98536.84;;;23.87;17.13
41513;BME280;27244;59.940;30.280;2024-01-15T00:58:28;98528.88;;;23.85;17.26
41513;BME280;27244;59.940;30.280;2024-01-15T01:00:55;98531.69;;;23.85;17.14
41513;BME280;27244;59.940;30.280;2024-01-15T01:03:22;98520.91;;;23.84;17.15
41513;BME280;27244;59.940;30.280;2024-01-15T01:05:49;98513.25;;;23.84;17.04
41513;BME280;27244;59.940;30.280;2024-01-15T01:08:16;98516.34;;;23.86;16.90
41513;BME280;27244;59.940;30.280;2024-01-15T01:10:46;98514.78;;;23.85;17.01
41513;BME280;27244;59.940;30.280;2024-01-15T01:13:13;98513.75;;;23.83;16.86
41513;BME280;27244;59.940;30.280;2024-01-15T01:15:40;98512.75;;;23.86;16.90
41513;BME280;27244;59.940;30.280;2024-01-15T01:18:07;98503.28;;;23.83;17.02
41513;BME280;27244;59.940;30.280;2024-01-15T01:20:34;98502.97;;;23.81;17.04
41513;BME280;27244;59.940;30.280;2024-01-15T01:23:02;98508.91;;;23.83;16.97
41513;BME280;27244;59.940;30.280;2024-01-15T01:25:31;98506.34;;;23.85;16.70
41513;BME280;27244;59.940;30.280;2024-01-15T01:28:03;98499.16;;;23.84;16.73
41513;BME280;27244;59.940;30.280;2024-01-15T01:30:30;98500.16;;;23.81;16.99
41513;BME280;27244;59.940;30.280;2024-01-15T01:32:57;98493.75;;;23.81;16.58
41513;BME280;27244;59.940;30.280;2024-01-15T01:35:25;98496.09;;;23.82;16.83
41513;BME280;27244;59.940;30.280;2024-01-15T01:37:54;98493.28;;;23.82;16.72
41513;BME280;27244;59.940;30.280;2024-01-15T01:40:23;98482.25;;;23.79;16.72
41513;BME280;27244;59.940;30.280;2024-01-15T01:43:15;98484.31;;;23.84;16.55
41513;BME280;27244;59.940;30.280;2024-01-15T01:45:43;98482.72;;;23.77;16.54
41513;BME280;27244;59.940;30.280;2024-01-15T01:48:10;98485.84;;;23.79;16.61
41513;BME280;27244;59.940;30.280;2024-01-15T01:50:39;98480.75;;;23.83;16.66
41513;BME280;27244;59.940;30.280;2024-01-15T01:53:07;98479.34;;;23.73;16.78
41513;BME280;27244;59.940;30.280;2024-01-15T01:55:36;98483.19;;;23.70;16.72
41513;BME280;27244;59.940;30.280;2024-01-15T01:58:05;98484.50;;;23.75;16.94
41513;BME280;27244;59.940;30.280;2024-01-15T02:00:35;98491.47;;;23.79;16.61
41513;BME280;27244;59.940;30.280;2024-01-15T02:03:03;98481.19;;;23.76;16.84
41513;BME280;27244;59.940;30.280;2024-01-15T02:05:31;98483.25;;;23.76;16.77
41513;BME280;27244;59.940;30.280;2024-01-15T02:07:58;98480.44;;;23.76;16.63
41513;BME280;27244;59.940;30.280;2024-01-15T02:10:28;98484.25;;;23.73;16.67
41513;BME280;27244;59.940;30.280;2024-01-15T02:12:55;98480.91;;;23.74;16.61
41513;BME280;27244;59.940;30.280;2024-01-15T02:15:22;98478.88;;;23.75;16.74
41513;BME280;27244;59.940;30.280;2024-01-15T02:18:05;98476.09;;;23.80;16.71
41513;BME280;27244;59.940;30.280;2024-01-15T02:20:34;98476.66;;;23.84;17.14
41513;BME280;27244;59.940;30.280;2024-01-15T02:23:07;98477.84;;;23.72;16.76
41513;BME280;27244;59.940;30.280;2024-01-15T02:25:36;98472.69;;;23.71;16.68
41513;BME280;27244;59.940;30.280;2024-01-15T02:28:04;98481.91;;;23.71;16.59
41513;BME280;27244;59.940;30.280;2024-01-15T02:30:32;98475.50;;;23.71;16.67
41513;BME280;27244;59.940;30.280;2024-01-15T02:33:04;98467.63;;;23.75;16.44
41513;BME280;27244;59.940;30.280;2024-01-15T02:35:31;98467.06;;;23.71;16.37
41513;BME280;27244;59.940;30.280;2024-01-15T02:37:59;98469.88;;;23.71;16.32
41513;BME280;27244;59.940;30.280;2024-01-15T02:40:27;98466.06;;;23.74;16.47
41513;BME280;27244;59.940;30.280;2024-01-15T02:42:55;98457.84;;;23.70;16.47
41513;BME280;27244;59.940;30.280;2024-01-15T02:45:24;98460.94;;;23.72;16.34
41513;BME280;27244;59.940;30.280;2024-01-15T02:47:51;98460.94;;;23.72;16.66
41513;BME280;27244;59.940;30.280;2024-01-15T02:50:18;98461.22;;;23.74;16.37
41513;BME280;27244;59.940;30.280;2024-01-15T02:52:45;98454.47;;;23.66;16.38
41513;BME280;27244;59.940;30.280;2024-01-15T02:55:12;98459.84;;;23.64;16.55
41513;BME280;27244;59.940;30.280;2024-01-15T02:57:41;98459.38;;;23.66;16.57
41513;BME280;27244;59.940;30.280;2024-01-15T03:00:09;98459.06;;;23.64;16.56
41513;BME280;27244;59.940;30.280;2024-01-15T03:02:37;98449.84;;;23.63;16.57
41513;BME280;27244;59.940;30.280;2024-01-15T03:05:06;98449.84;;;23.63;16.42
41513;BME280;27244;59.940;30.280;2024-01-15T03:07:33;98448.81;;;23.61;16.50
41513;BME280;27244;59.940;30.280;2024-01-15T03:10:04;98442.69;;;23.62;16.49
41513;BME280;27244;59.940;30.280;2024-01-15T03:12:31;98434.25;;;23.62;16.44
41513;BME280;27244;59.940;30.280;2024-01-15T03:15:00;98446.25;;;23.63;16.58
41513;BME280;27244;59.940;30.280;2024-01-15T03:17:28;98433.97;;;23.60;16.42
41513;BME280;27244;59.940;30.280;2024-01-15T03:19:55;98433.19;;;23.60;16.46
41513;BME280;27244;59.940;30.280;2024-01-15T03:22:22;98435.22;;;23.59;16.52
41513;BME280;27244;59.940;30.280;2024-01-15T03:24:50;98436.53;;;23.58;16.50
41513;BME280;27244;59.940;30.280;2024-01-15T03:27:17;98430.13;;;23.58;16.51
41513;BME280;27244;59.940;30.280;2024-01-15T03:29:44;98439.34;;;23.58;16.41
41513;BME280;27244;59.940;30.280;2024-01-15T03:32:12;98431.16;;;23.60;16.43
41513;BME280;27244;59.940;30.280;2024-01-15T03:34:41;98438.56;;;23.58;16.35
41513;BME280;27244;59.940;30.280;2024-01-15T03:37:08;98423.97;;;23.59;16.39
41513;BME280;27244;59.940;30.280;2024-01-15T03:39:35;98414.25;;;23.55;16.37
41513;BME280;27244;59.940;30.280;2024-01-15T03:42:03;98419.63;;;23.58;15.99
41513;BME280;27244;59.940;30.280;2024-01-15T03:44:30;98423.72;;;23.57;16.32
41513;BME280;27244;59.940;30.280;2024-01-15T03:46:57;98417.78;;;23.55;16.51
41513;BME280;27244;59.940;30.280;2024-01-15T03:49:26;98411.69;;;23.57;16.39
41513;BME280;27244;59.940;30.280;2024-01-15T03:51:53;98417.06;;;23.55;16.47
41513;BME280;27244;59.940;30.280;2024-01-15T03:54:20;98410.66;;;23.54;16.63
41513;BME280;27244;59.940;30.280;2024-01-15T03:56:47;98407.31;;;23.56;16.39
41513;BME280;27244;59.940;30.280;2024-01-15T03:59:14;98411.91;;;23.53;16.42
41513;BME280;27244;59.940;30.280;2024-01-15T04:01:41;98399.88;;;23.52;16.48
41513;BME280;27244;59.940;30.280;2024-01-15T04:04:08;98402.69;;;23.52;16.52
41513;BME280;27244;59.940;30.280;2024-01-15T04:06:36;98396.28;;;23.52;16.44
41513;BME280;27244;59.940;30.280;2024-01-15T04:09:03;98392.44;;;23.49;16.57
41513;BME280;27244;59.940;30.280;2024-01-15T04:11:30;98399.31;;;23.48;16.46
41513;BME280;27244;59.940;30.280;2024-01-15T04:13:57;98392.91;;;23.48;16.55
41513;BME280;27244;59.940;30.280;2024-01-15T04:16:24;98391.66;;;23.49;16.35
41513;BME280;27244;59.940;30.280;2024-01-15T04:18:51;98394.69;;;23.45;16.36
41513;BME280;27244;59.940;30.280;2024-01-15T04:21:18;98395.75;;;23.48;16.27
41513;BME280;27244;59.940;30.280;2024-01-15T04:23:47;98389.63;;;23.49;16.40
41513;BME280;27244;59.940;30.280;2024-01-15T04:26:14;98386.78;;;23.44;16.08
41513;BME280;27244;59.940;30.280;2024-01-15T04:28:41;98388.59;;;23.47;16.33
41513;BME280;27244;59.940;30.280;2024-01-15T04:31:08;98380.16;;;23.47;16.20
41513;BME280;27244;59.940;30.280;2024-01-15T04:33:35;98383.22;;;23.49;16.27
41513;BME280;27244;59.940;30.280;2024-01-15T04:36:02;98380.16;;;23.47;16.21
41513;BME280;27244;59.940;30.280;2024-01-15T04:38:30;98376.13;;;23.59;16.51
41513;BME280;27244;59.940;30.280;2024-01-15T04:40:59;98364.47;;;23.72;15.96
41513;BME280;27244;59.940;30.280;2024-01-15T04:43:26;98365.50;;;23.74;16.36
41513;BME280;27244;59.940;30.280;2024-01-15T04:45:53;98362.22;;;23.81;16.33
41513;BME280;27244;59.940;30.280;2024-01-15T04:48:20;98365.88;;;23.93;16.71
41513;BME280;27244;59.940;30.280;2024-01-15T04:50:48;98356.94;;;23.94;16.75
41513;BME280;27244;59.940;30.280;2024-01-15T04:53:16;98352.66;;;24.05;16.94
41513;BME280;27244;59.940;30.280;2024-01-15T04:55:43;98355.47;;;24.10;17.06
41513;BME280;27244;59.940;30.280;2024-01-15T04:58:11;98354.97;;;24.12;17.09
41513;BME280;27244;59.940;30.280;2024-01-15T05:00:38;98356.59;;;24.24;17.20
41513;BME280;27244;59.940;30.280;2024-01-15T05:03:05;98350.97;;;24.24;17.40
41513;BME280;27244;59.940;30.280;2024-01-15T05:05:32;98356.88;;;24.31;17.37
41513;BME280;27244;59.940;30.280;2024-01-15T05:07:59;98355.66;;;24.38;17.46
41513;BME280;27244;59.940;30.280;2024-01-15T05:10:27;98358.47;;;24.43;17.49
41513;BME280;27244;59.940;30.280;2024-01-15T05:12:54;98356.97;;;24.48;17.64
41513;BME280;27244;59.940;30.280;2024-01-15T05:15:22;98358.78;;;24.51;17.79
41513;BME280;27244;59.940;30.280;2024-01-15T05:17:49;98358.00;;;24.50;17.81
41513;BME280;27244;59.940;30.280;2024-01-15T05:20:16;98351.34;;;24.54;18.20
41513;BME280;27244;59.940;30.280;2024-01-15T05:22:43;98357.78;;;24.60;18.16
41513;BME280;27244;59.940;30.280;2024-01-15T05:25:10;98351.09;;;24.57;18.00
41513;BME280;27244;59.940;30.280;2024-01-15T05:27:37;98351.63;;;24.61;18.37
41513;BME280;27244;59.940;30.280;2024-01-15T05:30:05;98350.59;;;24.64;18.67
41513;BME280;27244;59.940;30.280;2024-01-15T05:32:34;98352.69;;;24.69;18.49
41513;BME280;27244;59.940;30.280;2024-01-15T05:35:01;98348.59;;;24.70;18.79
41513;BME280;27244;59.940;30.280;2024-01-15T05:37:28;98347.31;;;24.77;18.91
41513;BME280;27244;59.940;30.280;2024-01-15T05:39:55;98351.94;;;24.80;18.68
41513;BME280;27244;59.940;30.280;2024-01-15T05:42:22;98353.50;;;24.81;18.83
41513;BME280;27244;59.940;30.280;2024-01-15T05:44:49;98358.38;;;24.86;19.12
41513;BME280;27244;59.940;30.280;2024-01-15T05:47:16;98357.88;;;24.87;19.19
41513;BME280;27244;59.940;30.280;2024-01-15T05:49:45;98355.31;;;24.89;19.36
41513;BME280;27244;59.940;30.280;2024-01-15T05:52:12;98360.44;;;24.91;19.27
41513;BME280;27244;59.940;30.280;2024-01-15T05:54:39;98367.13;;;24.93;19.21
41513;BME280;27244;59.940;30.280;2024-01-15T05:57:06;98361.22;;;24.91;19.37
41513;BME280;27244;59.940;30.280;2024-01-15T05:59:33;98360.97;;;24.95;19.37
41513;BME280;27244;59.940;30.280;2024-01-15T06:02:01;98369.19;;;24.98;19.71
41513;BME280;27244;59.940;30.280;2024-01-15T06:04:28;98368.16;;;25.02;19.47
41513;BME280;27244;59.940;30.280;2024-01-15T06:06:57;98367.66;;;25.03;19.71
41513;BME280;27244;59.940;30.280;2024-01-15T06:09:24;98362.50;;;25.07;19.74
41513;BME280;27244;59.940;30.280;2024-01-15T06:11:51;98357.41;;;25.11;19.95
41513;BME280;27244;59.940;30.280;2024-01-15T06:14:18;98359.97;;;25.09;19.88
41513;BME280;27244;59.940;30.280;2024-01-15T06:16:45;98354.06;;;25.13;19.76
41513;BME280;27244;59.940;30.280;2024-01-15T06:19:12;98357.66;;;25.13;19.97
41513;BME280;27244;59.940;30.280;2024-01-15T06:21:39;98357.16;;;25.15;20.18
41513;BME280;27244;59.940;30.280;2024-01-15T06:24:07;98357.41;;;25.17;20.16
41513;BME280;27244;59.940;30.280;2024-01-15T06:26:35;98358.44;;;25.19;20.10
41513;BME280;27244;59.940;30.280;2024-01-15T06:29:04;98357.16;;;25.20;19.99
41513;BME280;27244;59.940;30.280;2024-01-15T06:31:31;98353.56;;;25.20;20.46
41513;BME280;27244;59.940;30.280;2024-01-15T06:33:58;98366.16;;;25.24;20.11
41513;BME280;27244;59.940;30.280;2024-01-15T06:36:25;98362.56;;;25.24;20.53
41513;BME280;27244;59.940;30.280;2024-01-15T06:38:52;98372.03;;;25.26;20.54
41513;BME280;27244;59.940;30.280;2024-01-15T06:41:20;98371.53;;;25.28;20.41
41513;BME280;27244;59.940;30.280;2024-01-15T06:43:47;98369.22;;;25.26;20.25
41513;BME280;27244;59.940;30.280;2024-01-15T06:46:19;98377.94;;;25.34;20.30
41513;BME280;27244;59.940;30.280;2024-01-15T06:48:46;98368.72;;;25.33;20.32
41513;BME280;27244;59.940;30.280;2024-01-15T06:51:14;98363.31;;;25.30;20.72
41513;BME280;27244;59.940;30.280;2024-01-15T06:53:41;98367.69;;;25.36;20.44
41513;BME280;27244;59.940;30.280;2024-01-15T06:56:08;98364.06;;;25.36;20.45
41513;BME280;27244;59.940;30.280;2024-01-15T06:58:36;98366.41;;;25.37;20.50
41513;BME280;27244;59.940;30.280;2024-01-15T07:01:03;98362.56;;;25.40;20.49
41513;BME280;27244;59.940;30.280;2024-01-15T07:03:31;98360.25;;;25.39;20.60
41513;BME280;27244;59.940;30.280;2024-01-15T07:05:58;98371.28;;;25.42;20.89
41513;BME280;27244;59.940;30.280;2024-01-15T07:08:25;98366.66;;;25.45;20.59
41513;BME280;27244;59.940;30.280;2024-01-15T07:10:52;98352.28;;;25.48;20.65
41513;BME280;27244;59.940;30.280;2024-01-15T07:13:19;98358.44;;;25.47;20.59
41513;BME280;27244;59.940;30.280;2024-01-15T07:15:48;98350.25;;;25.49;21.04
41513;BME280;27244;59.940;30.280;2024-01-15T07:18:15;98349.47;;;25.48;20.61
41513;BME280;27244;59.940;30.280;2024-01-15T07:20:43;98346.16;;;25.50;20.90
41513;BME280;27244;59.940;30.280;2024-01-15T07:23:10;98348.47;;;25.52;20.68
41513;BME280;27244;59.940;30.280;2024-01-15T07:25:37;98350.50;;;25.51;20.76
41513;BME280;27244;59.940;30.280;2024-01-15T07:28:05;98354.59;;;25.50;20.70
41513;BME280;27244;59.940;30.280;2024-01-15T07:30:32;98359.75;;;25.52;20.89
41513;BME280;27244;59.940;30.280;2024-01-15T07:33:00;98357.94;;;25.54;21.14
41513;BME280;27244;59.940;30.280;2024-01-15T07:35:26;98356.69;;;25.55;21.09
41513;BME280;27244;59.940;30.280;2024-01-15T07:37:53;98357.44;;;25.56;20.94
41513;BME280;27244;59.940;30.280;2024-01-15T07:40:21;98356.94;;;25.57;20.92
41513;BME280;27244;59.940;30.280;2024-01-15T07:42:48;98359.78;;;25.57;21.10
41513;BME280;27244;59.940;30.280;2024-01-15T07:45:15;98355.13;;;25.60;20.88
41513;BME280;27244;59.940;30.280;2024-01-15T07:47:42;98354.88;;;25.58;20.99
41513;BME280;27244;59.940;30.280;2024-01-15T07:50:11;98356.69;;;25.61;21.35
41513;BME280;27244;59.940;30.280;2024-01-15T07:52:39;98358.47;;;25.64;21.36
41513;BME280;27244;59.940;30.280;2024-01-15T07:55:07;98353.09;;;25.60;21.32
41513;BME280;27244;59.940;30.280;2024-01-15T07:57:34;98353.09;;;25.60;21.07
41513;BME280;27244;59.940;30.280;2024-01-15T08:00:02;98352.28;;;25.65;21.13
41513;BME280;27244;59.940;30.280;2024-01-15T08:02:32;98355.13;;;25.65;21.47
41513;BME280;27244;59.940;30.280;2024-01-15T08:04:59;98352.28;;;25.65;21.55
41513;BME280;27244;59.940;30.280;2024-01-15T08:07:28;98350.25;;;25.66;21.25
41513;BME280;27244;59.940;30.280;2024-01-15T08:09:55;98348.47;;;25.68;21.35
41513;BME280;27244;59.940;30.280;2024-01-15T08:12:22;98344.88;;;25.68;21.54
41513;BME280;27244;59.940;30.280;2024-01-15T08:14:49;98343.31;;;25.67;21.37
41513;BME280;27244;59.940;30.280;2024-01-15T08:17:16;98344.09;;;25.67;21.22
41513;BME280;27244;59.940;30.280;2024-01-15T08:19:43;98338.44;;;25.67;21.28
41513;BME280;27244;59.940;30.280;2024-01-15T08:22:10;98339.47;;;25.70;21.32
41513;BME280;27244;59.940;30.280;2024-01-15T08:24:38;98343.31;;;25.72;21.47
41513;BME280;27244;59.940;30.280;2024-01-15T08:27:05;98348.19;;;25.72;21.63
41513;BME280;27244;59.940;30.280;2024-01-15T08:29:33;98347.44;;;25.71;21.87
41513;BME280;27244;59.940;30.280;2024-01-15T08:32:00;98341.50;;;25.69;21.82
41513;BME280;27244;59.940;30.280;2024-01-15T08:34:27;98338.69;;;25.69;21.40
41513;BME280;27244;59.940;30.280;2024-01-15T08:36:55;98335.38;;;25.71;21.52
41513;BME280;27244;59.940;30.280;2024-01-15T08:39:22;98340.47;;;25.72;21.39
41513;BME280;27244;59.940;30.280;2024-01-15T08:41:50;98337.94;;;25.74;21.50
41513;BME280;27244;59.940;30.280;2024-01-15T08:44:17;98334.09;;;25.72;21.42
41513;BME280;27244;59.940;30.280;2024-01-15T08:46:44;98337.94;;;25.74;21.58
41513;BME280;27244;59.940;30.280;2024-01-15T08:49:11;98340.47;;;25.72;21.47
41513;BME280;27244;59.940;30.280;2024-01-15T08:51:38;98342.28;;;25.75;21.56
41513;BME280;27244;59.940;30.280;2024-01-15T08:54:06;98334.81;;;25.72;21.69
41513;BME280;27244;59.940;30.280;2024-01-15T08:56:34;98327.91;;;25.73;21.88
41513;BME280;27244;59.940;30.280;2024-01-15T08:59:02;98325.84;;;25.74;22.01
41513;BME280;27244;59.940;30.280;2024-01-15T09:01:29;98327.91;;;25.73;21.69
41513;BME280;27244;59.940;30.280;2024-01-15T09:03:56;98326.63;;;25.74;22.07
41513;BME280;27244;59.940;30.280;2024-01-15T09:06:23;98313.81;;;25.68;22.02
41513;BME280;27244;59.940;30.280;2024-01-15T09:08:50;98326.63;;;25.74;21.72
41513;BME280;27244;59.940;30.280;2024-01-15T09:11:17;98320.97;;;25.74;21.75
41513;BME280;27244;59.940;30.280;2024-01-15T09:13:45;98319.97;;;25.72;21.93
41513;BME280;27244;59.940;30.280;2024-01-15T09:16:13;98321.22;;;25.76;22.23
41513;BME280;27244;59.940;30.280;2024-01-15T09:18:40;98319.69;;;25.75;22.27
41513;BME280;27244;59.940;30.280;2024-01-15T09:21:07;98319.16;;;25.77;22.31
41513;BME280;27244;59.940;30.280;2024-01-15T09:23:34;98314.28;;;25.77;22.32
41513;BME280;27244;59.940;30.280;2024-01-15T09:26:01;98320.72;;;25.78;22.30
41513;BME280;27244;59.940;30.280;2024-01-15T09:28:28;98312.75;;;25.76;22.20
41513;BME280;27244;59.940;30.280;2024-01-15T09:30:55;98317.63;;;25.76;21.86
41513;BME280;27244;59.940;30.280;2024-01-15T09:33:24;98317.63;;;25.81;22.15
41513;BME280;27244;59.940;30.280;2024-01-15T09:35:51;98315.84;;;25.78;22.13
41513;BME280;27244;59.940;30.280;2024-01-15T09:38:18;98314.53;;;25.79;22.07
41513;BME280;27244;59.940;30.280;2024-01-15T09:40:45;98317.88;;;25.78;21.95
41513;BME280;27244;59.940;30.280;2024-01-15T09:43:14;98320.44;;;25.81;21.87
41513;BME280;27244;59.940;30.280;2024-01-15T09:45:42;98317.88;;;25.83;21.79
41513;BME280;27244;59.940;30.280;2024-01-15T09:48:10;98325.06;;;25.84;22.06
41513;BME280;27244;59.940;30.280;2024-01-15T09:50:39;98314.28;;;25.83;21.94
41513;BME280;27244;59.940;30.280;2024-01-15T09:53:06;98315.81;;;25.84;22.19
41513;BME280;27244;59.940;30.280;2024-01-15T09:55:33;98314.03;;;25.86;22.23
41513;BME280;27244;59.940;30.280;2024-01-15T09:58:01;98324.03;;;25.87;21.93
41513;BME280;27244;59.940;30.280;2024-01-15T10:00:29;98315.03;;;25.89;22.07
41513;BME280;27244;59.940;30.280;2024-01-15T10:02:57;98308.38;;;25.86;22.08
41513;BME280;27244;59.940;30.280;2024-01-15T10:05:26;98308.63;;;25.88;22.26
41513;BME280;27244;59.940;30.280;2024-01-15T10:07:56;98307.88;;;25.82;22.12
41513;BME280;27244;59.940;30.280;2024-01-15T10:10:23;98309.41;;;25.83;22.28
41513;BME280;27244;59.940;30.280;2024-01-15T10:12:51;98312.22;;;25.83;22.46
41513;BME280;27244;59.940;30.280;2024-01-15T10:15:18;98315.03;;;25.83;21.32
41513;BME280;27244;59.940;30.280;2024-01-15T10:17:49;98311.72;;;25.79;20.13
41513;BME280;27244;59.940;30.280;2024-01-15T10:20:16;98313.25;;;25.80;20.26
41513;BME280;27244;59.940;30.280;2024-01-15T10:22:45;98311.22;;;25.81;20.39
41513;BME280;27244;59.940;30.280;2024-01-15T10:25:14;98305.06;;;25.77;21.13
41513;BME280;27244;59.940;30.280;2024-01-15T10:27:42;98299.94;;;25.75;21.15
41513;BME280;27244;59.940;30.280;2024-01-15T10:30:10;98304.78;;;25.80;20.87
41513;BME280;27244;59.940;30.280;2024-01-15T10:32:37;98304.28;;;25.82;21.41
41513;BME280;27244;59.940;30.280;2024-01-15T10:35:07;98305.81;;;25.77;21.21
41513;BME280;27244;59.940;30.280;2024-01-15T10:37:34;98302.72;;;25.81;21.48
41513;BME280;27244;59.940;30.280;2024-01-15T10:40:02;98298.88;;;25.84;21.75
41513;BME280;27244;59.940;30.280;2024-01-15T10:42:32;98298.38;;;25.85;21.68
41513;BME280;27244;59.940;30.280;2024-01-15T10:44:59;98296.31;;;25.86;21.80
41513;BME280;27244;59.940;30.280;2024-01-15T10:47:26;98300.16;;;25.83;21.60
41513;BME280;27244;59.940;30.280;2024-01-15T10:49:54;98284.75;;;25.84;21.96
41513;BME280;27244;59.940;30.280;2024-01-15T10:52:21;98290.66;;;25.86;21.96
41513;BME280;27244;59.940;30.280;2024-01-15T10:54:49;98286.53;;;25.87;22.06
41513;BME280;27244;59.940;30.280;2024-01-15T10:57:17;98293.22;;;25.89;21.97
41513;BME280;27244;59.940;30.280;2024-01-15T10:59:46;98295.00;;;25.87;21.95
41513;BME280;27244;59.940;30.280;2024-01-15T11:02:14;98290.91;;;25.88;21.84
41513;BME280;27244;59.940;30.280;2024-01-15T11:04:42;98289.34;;;25.92;22.27
41513;BME280;27244;59.940;30.280;2024-01-15T11:07:10;98287.03;;;25.91;22.04
41513;BME280;27244;59.940;30.280;2024-01-15T11:09:40;98286.53;;;25.92;22.26
41513;BME280;27244;59.940;30.280;2024-01-15T11:12:09;98283.72;;;25.92;21.89
41513;BME280;27244;59.940;30.280;2024-01-15T11:14:39;98280.59;;;25.96;22.25
41513;BME280;27244;59.940;30.280;2024-01-15T11:17:10;98298.06;;;25.94;22.15
41513;BME280;27244;59.940;30.280;2024-01-15T11:19:42;98289.84;;;25.97;22.02
41513;BME280;27244;59.940;30.280;2024-01-15T11:22:11;98288.31;;;25.95;22.20
41513;BME280;27244;59.940;30.280;2024-01-15T11:25:02;98287.53;;;26.01;21.87
41513;BME280;27244;59.940;30.280;2024-01-15T11:27:39;98289.06;;;26.02;21.98
41513;BME280;27244;59.940;30.280;2024-01-15T11:30:09;98290.38;;;26.01;22.27
41513;BME280;27244;59.940;30.280;2024-01-15T11:32:38;98284.44;;;25.99;21.97
41513;BME280;27244;59.940;30.280;2024-01-15T11:35:07;98277.25;;;25.98;22.36
41513;BME280;27244;59.940;30.280;2024-01-15T11:38:01;98279.56;;;25.99;22.03
41513;BME280;27244;59.940;30.280;2024-01-15T11:40:38;98273.41;;;26.01;22.12
41513;BME280;27244;59.940;30.280;2024-01-15T11:43:08;98277.25;;;25.98;22.28
41513;BME280;27244;59.940;30.280;2024-01-15T11:45:36;98268.78;;;25.98;22.30
41513;BME280;27244;59.940;30.280;2024-01-15T11:48:14;98272.63;;;26.00;22.13
41513;BME280;27244;59.940;30.280;2024-01-15T11:50:42;98269.81;;;26.00;22.23
41513;BME280;27244;59.940;30.280;2024-01-15T11:53:16;98275.19;;;26.04;22.62
41513;BME280;27244;59.940;30.280;2024-01-15T11:55:46;98271.34;;;26.01;22.50
41513;BME280;27244;59.940;30.280;2024-01-15T11:58:16;98261.06;;;25.98;22.38
41513;BME280;27244;59.940;30.280;2024-01-15T12:00:45;98278.25;;;26.06;22.16
41513;BME280;27244;59.940;30.280;2024-01-15T12:03:13;98264.94;;;26.01;22.46
41513;BME280;27244;59.940;30.280;2024-01-15T12:05:41;98267.50;;;26.04;22.24
41513;BME280;27244;59.940;30.280;2024-01-15T12:08:08;98262.59;;;26.05;22.18
41513;BME280;27244;59.940;30.280;2024-01-15T12:10:37;98258.50;;;26.00;22.67
41513;BME280;27244;59.940;30.280;2024-01-15T12:13:10;98259.47;;;26.08;22.15
41513;BME280;27244;59.940;30.280;2024-01-15T12:15:37;98263.63;;;26.07;22.56
41513;BME280;27244;59.940;30.280;2024-01-15T12:18:08;98251.81;;;26.03;22.55
41513;BME280;27244;59.940;30.280;2024-01-15T12:20:37;98254.88;;;26.05;22.26
41513;BME280;27244;59.940;30.280;2024-01-15T12:23:04;98255.16;;;26.07;22.34
41513;BME280;27244;59.940;30.280;2024-01-15T12:25:39;98267.22;;;26.08;22.56
41513;BME280;27244;59.940;30.280;2024-01-15T12:28:06;98261.31;;;26.06;21.61
41513;BME280;27244;59.940;30.280;2024-01-15T12:30:34;98263.13;;;26.03;20.44
41513;BME280;27244;59.940;30.280;2024-01-15T12:33:03;98260.31;;;25.98;19.83
41513;BME280;27244;59.940;30.280;2024-01-15T12:35:34;98260.84;;;25.96;19.58
41513;BME280;27244;59.940;30.280;2024-01-15T12:38:03;98252.38;;;25.90;19.20
41513;BME280;27244;59.940;30.280;2024-01-15T12:40:33;98250.59;;;25.87;19.03
41513;BME280;27244;59.940;30.280;2024-01-15T12:43:00;98241.38;;;25.81;18.47
41513;BME280;27244;59.940;30.280;2024-01-15T12:45:27;98242.16;;;25.76;18.68
41513;BME280;27244;59.940;30.280;2024-01-15T12:48:02;98243.19;;;25.73;18.42
41513;BME280;27244;59.940;30.280;2024-01-15T12:50:33;98245.28;;;25.67;18.25
41513;BME280;27244;59.940;30.280;2024-01-15T12:53:02;98240.91;;;25.66;18.27
41513;BME280;27244;59.940;30.280;2024-01-15T12:55:30;98239.63;;;25.62;18.28